Cedar Park's Hourly Summary for Saturday, April 15, 2017
Hour Temp
(f)
RH
(%)
Solar Rad.
(MJ/m2)
Rainfall
(in)
Wind
(mph)
4/15/2017 12:00 AM 68 80 0 0 6.67
4/15/2017 1:00 AM 67 86 0 0 6.77
4/15/2017 2:00 AM 67 94 0 0 7.27
4/15/2017 3:00 AM 67 97 0 0 6.17
4/15/2017 4:00 AM 66 99 0 0 5.75
4/15/2017 5:00 AM 66 99 0 0 5.04
4/15/2017 6:00 AM 66 99 0 0 4.69
4/15/2017 7:00 AM 65 99 0 0 4.63
4/15/2017 8:00 AM 65 100 0.04 0 3.89
4/15/2017 9:00 AM 66 99 0.4 0 5.57
4/15/2017 10:00 AM 68 85 1.03 0 6.56
4/15/2017 11:00 AM 70 74 1.64 0 7.31
4/15/2017 12:00 PM 72 68 1.63 0 6.79
4/15/2017 1:00 PM 74 61 2.75 0 8.29
4/15/2017 2:00 PM 76 53 2.51 0 8.79
4/15/2017 3:00 PM 77 55 1.77 0 8.35
4/15/2017 4:00 PM 78 55 2.02 0 7.73
4/15/2017 5:00 PM 78 55 1.3 0 7.02
4/15/2017 6:00 PM 78 55 0.84 0 6.8
4/15/2017 7:00 PM 78 55 0.33 0 7.23
4/15/2017 8:00 PM 76 58 0.1 0 6.03
4/15/2017 9:00 PM 74 65 0 0 5.25
4/15/2017 10:00 PM 73 69 0 0 7.29
4/15/2017 11:00 PM 71 73 0 0 7.91
Data Summary 71 76 16.36 0.00 6.58